Terminal Aerodrome Forecast
Issued by NWS Blacksburg, VA

Home | Current Version | Previous Version | Text Only | Print | Product List | Glossary On
Versions: 1 2 3 4 5 6 7 8 9 10 11 12 13 14 15 16 17 18 19 20 21 22 23 24 25 26 27 28
000
FTUS41 KRNK 250626 AAA
TAFDAN
TAF AMD
KDAN 250626Z 2506/2606 00000KT 2SM RA BR OVC012
      TEMPO 2506/2508 5SM -SHRA OVC007
     FM250800 VRB03KT 4SM RA BR OVC015
     FM251400 25006KT P6SM BKN060
     FM251900 24011KT P6SM VCSH BKN060
     FM252300 24010KT P6SM BKN060=

USA.gov is the U.S. government's official web portal to all federal, state and local government web resources and services.